createdAt,value
2023-01-19T00:00:26.689Z,100130.91
2023-01-19T00:02:54.821Z,100124.03
2023-01-19T00:05:21.459Z,100134.69
2023-01-19T00:07:47.861Z,100118.94
2023-01-19T00:10:14.334Z,100116.66
2023-01-19T00:12:40.819Z,100118.69
2023-01-19T00:15:08.062Z,100127.16
2023-01-19T00:17:35.161Z,100129.59
2023-01-19T00:20:01.643Z,100137.13
2023-01-19T00:22:28.064Z,100135.38
2023-01-19T00:24:54.494Z,100138.09
2023-01-19T00:27:20.977Z,100131.00
2023-01-19T00:29:47.363Z,100131.03
2023-01-19T00:32:13.921Z,100133.41
2023-01-19T00:34:49.268Z,100128.59
2023-01-19T00:37:16.791Z,100132.22
2023-01-19T00:39:43.671Z,100132.38
2023-01-19T00:42:32.393Z,100127.13
2023-01-19T00:44:58.797Z,100126.84
2023-01-19T00:47:25.281Z,100123.31
2023-01-19T00:49:51.750Z,100117.41
2023-01-19T00:52:18.165Z,100119.56
2023-01-19T00:54:44.610Z,100110.28
2023-01-19T00:57:11.056Z,100110.16
2023-01-19T00:59:37.427Z,100118.50
2023-01-19T01:02:03.973Z,100109.75
2023-01-19T01:04:30.555Z,100109.34
2023-01-19T01:06:56.948Z,100110.69
2023-01-19T01:09:24.262Z,100116.19
2023-01-19T01:11:50.621Z,100102.19
2023-01-19T01:14:17.610Z,100099.06
2023-01-19T01:16:44.053Z,100107.28
2023-01-19T01:19:10.637Z,100118.06
2023-01-19T01:21:37.333Z,100115.50
2023-01-19T01:24:04.133Z,100111.31
2023-01-19T01:26:30.784Z,100105.69
2023-01-19T01:28:57.221Z,100100.97
2023-01-19T01:31:23.823Z,100113.09
2023-01-19T01:33:50.248Z,100113.25
2023-01-19T01:36:16.747Z,100113.25
2023-01-19T01:38:43.143Z,100109.84
2023-01-19T01:41:09.827Z,100114.97
2023-01-19T01:43:48.911Z,100114.31
2023-01-19T01:46:17.140Z,100116.88
2023-01-19T01:48:49.715Z,100120.91
2023-01-19T01:51:24.059Z,100123.34
2023-01-19T01:54:30.024Z,100122.09
2023-01-19T01:57:01.831Z,100117.63
2023-01-19T01:59:39.874Z,100126.94
2023-01-19T02:02:29.562Z,100118.06
2023-01-19T02:05:00.531Z,100120.31
2023-01-19T02:08:07.118Z,100124.22
2023-01-19T02:10:52.633Z,100122.06
2023-01-19T02:13:22.994Z,100123.41
2023-01-19T02:15:58.548Z,100123.91
2023-01-19T02:18:28.199Z,100132.78
2023-01-19T02:21:09.518Z,100129.94
2023-01-19T02:23:40.571Z,100138.69
2023-01-19T02:26:09.635Z,100127.06
2023-01-19T02:28:41.227Z,100133.53
2023-01-19T02:31:07.727Z,100138.38
2023-01-19T02:33:34.252Z,100140.34
2023-01-19T02:36:00.824Z,100145.75
2023-01-19T02:38:28.455Z,100144.88
2023-01-19T02:40:59.120Z,100144.31
2023-01-19T02:43:26.942Z,100151.72
2023-01-19T02:45:53.560Z,100161.41
2023-01-19T02:48:21.306Z,100153.44
2023-01-19T02:50:52.997Z,100153.94
2023-01-19T02:54:02.595Z,100168.38
2023-01-19T02:56:49.853Z,100166.59
2023-01-19T02:59:34.592Z,100171.44
2023-01-19T03:02:19.972Z,100173.88
2023-01-19T03:05:00.793Z,100171.81
2023-01-19T03:07:35.910Z,100180.03
2023-01-19T03:10:24.088Z,100189.19
2023-01-19T03:13:13.897Z,100196.06
2023-01-19T03:15:56.502Z,100184.88
2023-01-19T03:18:27.011Z,100193.34
2023-01-19T03:20:57.528Z,100174.59
2023-01-19T03:23:31.602Z,100181.34
2023-01-19T03:26:00.345Z,100183.91
2023-01-19T03:28:29.429Z,100188.22
2023-01-19T03:31:05.866Z,100193.34
2023-01-19T03:33:37.258Z,100189.06
2023-01-19T03:36:11.168Z,100188.75
2023-01-19T03:38:41.168Z,100190.34
2023-01-19T03:41:13.379Z,100197.75
2023-01-19T03:43:41.073Z,100203.84
2023-01-19T03:46:08.468Z,100197.09
2023-01-19T03:48:35.997Z,100198.03
2023-01-19T03:51:05.792Z,100217.75
2023-01-19T03:53:32.457Z,100215.34
2023-01-19T03:55:59.273Z,100208.72
2023-01-19T03:58:25.665Z,100220.88
2023-01-19T04:00:52.298Z,100217.66
2023-01-19T04:03:18.777Z,100228.19
2023-01-19T04:05:45.993Z,100225.13
2023-01-19T04:08:13.325Z,100232.94
2023-01-19T04:10:40.004Z,100225.41
2023-01-19T04:13:06.422Z,100233.50
2023-01-19T04:15:32.986Z,100233.91
2023-01-19T04:18:00.746Z,100232.59
2023-01-19T04:20:28.418Z,100228.69
2023-01-19T04:22:58.630Z,100221.44
2023-01-19T04:25:25.253Z,100226.03
2023-01-19T04:27:53.087Z,100220.38
2023-01-19T04:30:19.989Z,100226.72
2023-01-19T04:32:46.825Z,100227.97
2023-01-19T04:35:13.291Z,100228.22
2023-01-19T04:37:40.109Z,100227.72
2023-01-19T04:40:07.352Z,100243.34
2023-01-19T04:42:33.732Z,100238.50
2023-01-19T04:45:00.165Z,100247.25
2023-01-19T04:47:26.531Z,100242.53
2023-01-19T04:49:52.947Z,100246.19
2023-01-19T04:52:19.544Z,100255.75
2023-01-19T04:54:45.906Z,100255.09
2023-01-19T04:57:12.344Z,100254.41
2023-01-19T04:59:38.762Z,100259.66
2023-01-19T05:02:05.199Z,100266.69
2023-01-19T05:04:31.627Z,100268.84
2023-01-19T05:06:58.289Z,100267.34
2023-01-19T05:09:25.850Z,100269.91
2023-01-19T05:11:52.242Z,100275.03
2023-01-19T05:14:18.836Z,100285.13
2023-01-19T05:16:45.246Z,100290.13
2023-01-19T05:19:12.362Z,100283.09
2023-01-19T05:21:38.927Z,100292.94
2023-01-19T05:24:05.638Z,100286.06
2023-01-19T05:26:32.074Z,100287.81
2023-01-19T05:28:58.486Z,100282.72
2023-01-19T05:31:25.237Z,100284.34
2023-01-19T05:33:51.721Z,100287.69
2023-01-19T05:36:18.263Z,100292.81
2023-01-19T05:38:44.757Z,100296.16
2023-01-19T05:41:11.242Z,100301.28
2023-01-19T05:43:37.882Z,100292.53
2023-01-19T05:46:05.364Z,100310.72
2023-01-19T05:48:31.797Z,100317.88
2023-01-19T05:50:59.668Z,100303.94
2023-01-19T05:53:26.733Z,100312.31
2023-01-19T05:55:53.660Z,100308.09
2023-01-19T05:58:20.020Z,100306.44
2023-01-19T06:00:46.398Z,100315.75
2023-01-19T06:03:13.030Z,100319.25
2023-01-19T06:05:39.505Z,100319.25
2023-01-19T06:08:06.083Z,100324.53
2023-01-19T06:10:33.672Z,100327.53
2023-01-19T06:13:00.474Z,100331.44
2023-01-19T06:15:27.025Z,100339.66
2023-01-19T06:17:53.459Z,100341.03
2023-01-19T06:20:19.913Z,100346.69
2023-01-19T06:22:47.617Z,100359.09
2023-01-19T06:25:14.097Z,100356.53
2023-01-19T06:27:45.057Z,100346.03
2023-01-19T06:30:12.415Z,100362.97
2023-01-19T06:32:38.836Z,100375.34
2023-01-19T06:35:07.721Z,100404.75
2023-01-19T06:37:34.172Z,100386.41
2023-01-19T06:40:00.777Z,100385.44
2023-01-19T06:42:27.245Z,100394.63
2023-01-19T06:44:53.619Z,100393.25
2023-01-19T06:47:20.160Z,100399.06
2023-01-19T06:49:46.614Z,100396.63
2023-01-19T06:52:17.495Z,100398.50
2023-01-19T06:54:47.040Z,100396.25
2023-01-19T06:57:14.463Z,100405.00
2023-01-19T06:59:41.073Z,100406.75
2023-01-19T07:02:27.901Z,100411.19
2023-01-19T07:04:53.928Z,100408.78
2023-01-19T07:07:20.293Z,100410.66
2023-01-19T07:09:46.913Z,100427.00
2023-01-19T07:12:14.625Z,100425.50
2023-01-19T07:14:41.073Z,100423.22
2023-01-19T07:17:07.783Z,100439.00
2023-01-19T07:19:35.279Z,100436.97
2023-01-19T07:22:03.115Z,100435.09
2023-01-19T07:24:33.655Z,100441.69
2023-01-19T07:27:00.085Z,100446.69
2023-01-19T07:29:27.103Z,100450.03
2023-01-19T07:31:56.340Z,100452.31
2023-01-19T07:34:22.788Z,100459.59
2023-01-19T07:36:49.281Z,100466.84
2023-01-19T07:39:16.033Z,100470.34
2023-01-19T07:41:42.489Z,100473.72
2023-01-19T07:44:08.878Z,100480.31
2023-01-19T07:46:35.335Z,100473.06
2023-01-19T07:49:01.729Z,100482.09
2023-01-19T07:51:28.236Z,100484.41
2023-01-19T07:53:54.700Z,100493.28
2023-01-19T07:56:22.338Z,100499.78
2023-01-19T07:58:50.890Z,100503.81
2023-01-19T08:01:18.034Z,100505.44
2023-01-19T08:03:44.657Z,100508.13
2023-01-19T08:06:22.177Z,100510.16
2023-01-19T08:08:49.351Z,100525.66
2023-01-19T08:11:16.238Z,100533.47
2023-01-19T08:13:43.452Z,100532.09
2023-01-19T08:16:10.109Z,100540.59
2023-01-19T08:18:36.572Z,100542.34
2023-01-19T08:21:03.214Z,100540.06
2023-01-19T08:23:29.635Z,100543.53
2023-01-19T08:25:56.471Z,100544.47
2023-01-19T08:28:23.426Z,100551.47
2023-01-19T08:30:54.453Z,100545.00
2023-01-19T08:33:25.222Z,100550.28
2023-01-19T08:35:53.602Z,100555.22
2023-01-19T08:38:20.174Z,100567.09
2023-01-19T08:40:46.659Z,100568.72
2023-01-19T08:43:15.338Z,100568.72
2023-01-19T08:45:52.600Z,100562.53
2023-01-19T08:48:22.202Z,100572.38
2023-01-19T08:50:50.402Z,100571.19
2023-01-19T08:53:17.775Z,100575.66
2023-01-19T08:55:44.436Z,100574.47
2023-01-19T08:58:11.108Z,100572.59
2023-01-19T09:00:39.122Z,100576.16
2023-01-19T09:03:07.381Z,100581.53
2023-01-19T09:05:37.396Z,100581.41
2023-01-19T09:08:08.299Z,100589.38
2023-01-19T09:10:37.797Z,100589.63
2023-01-19T09:13:06.980Z,100589.88
2023-01-19T09:15:35.749Z,100594.88
2023-01-19T09:18:03.298Z,100594.63
2023-01-19T09:20:31.164Z,100596.13
2023-01-19T09:22:58.392Z,100593.44
2023-01-19T09:25:25.432Z,100592.72
2023-01-19T09:27:52.409Z,100602.97
2023-01-19T09:30:19.421Z,100597.59
2023-01-19T09:32:46.331Z,100604.22
2023-01-19T09:35:12.837Z,100607.44
2023-01-19T09:37:39.370Z,100603.94
2023-01-19T09:40:06.937Z,100604.63
2023-01-19T09:42:39.393Z,100612.72
2023-01-19T09:45:12.249Z,100612.47
2023-01-19T09:47:39.414Z,100613.81
2023-01-19T09:50:16.396Z,100614.09
2023-01-19T09:52:48.026Z,100614.50
2023-01-19T09:55:23.037Z,100608.00
2023-01-19T09:57:52.244Z,100615.28
2023-01-19T10:00:22.740Z,100613.13
2023-01-19T10:02:58.518Z,100620.16
2023-01-19T10:05:39.838Z,100622.06
2023-01-19T10:08:27.713Z,100618.25
2023-01-19T10:10:57.295Z,100624.75
2023-01-19T10:13:41.860Z,100631.38
2023-01-19T10:16:09.671Z,100631.63
2023-01-19T10:18:47.838Z,100628.50
2023-01-19T10:21:22.864Z,100632.00
2023-01-19T10:24:06.680Z,100634.03
2023-01-19T10:26:52.546Z,100637.13
2023-01-19T10:29:25.973Z,100638.44
2023-01-19T10:32:01.771Z,100639.94
2023-01-19T10:34:28.749Z,100649.28
2023-01-19T10:37:05.142Z,100642.22
2023-01-19T10:39:31.901Z,100639.41
2023-01-19T10:42:02.405Z,100651.97
2023-01-19T10:44:36.582Z,100645.44
2023-01-19T10:47:06.204Z,100646.78
2023-01-19T10:49:42.764Z,100650.53
2023-01-19T10:52:26.620Z,100647.41
2023-01-19T10:54:53.201Z,100645.09
2023-01-19T10:57:28.451Z,100644.53
2023-01-19T10:59:55.033Z,100636.13
2023-01-19T11:02:37.129Z,100640.41
2023-01-19T11:05:24.082Z,100642.13
2023-01-19T11:07:51.137Z,100649.25
2023-01-19T11:10:17.654Z,100647.72
2023-01-19T11:13:07.454Z,100645.41
2023-01-19T11:15:41.406Z,100650.63
2023-01-19T11:18:08.169Z,100646.38
2023-01-19T11:20:53.034Z,100657.84
2023-01-19T11:23:29.801Z,100644.69
2023-01-19T11:26:01.551Z,100654.69
2023-01-19T11:28:32.791Z,100651.16
2023-01-19T11:31:13.946Z,100655.59
2023-01-19T11:33:50.938Z,100659.16
2023-01-19T11:36:23.135Z,100655.88
2023-01-19T11:38:52.401Z,100653.06
2023-01-19T11:41:22.151Z,100657.78
2023-01-19T11:43:52.914Z,100660.00
2023-01-19T11:46:20.733Z,100654.00
2023-01-19T11:49:01.002Z,100654.69
2023-01-19T11:52:01.703Z,100659.22
2023-01-19T11:54:47.604Z,100651.28
2023-01-19T11:57:17.140Z,100652.56
2023-01-19T11:59:44.605Z,100653.53
2023-01-19T12:02:23.408Z,100647.81
2023-01-19T12:04:52.601Z,100645.03
2023-01-19T12:07:23.752Z,100646.31
2023-01-19T12:09:55.353Z,100649.91
2023-01-19T12:12:33.780Z,100650.38
2023-01-19T12:15:15.086Z,100651.25
2023-01-19T12:17:47.748Z,100649.44
2023-01-19T12:20:25.363Z,100655.75
2023-01-19T12:23:09.520Z,100663.03
2023-01-19T12:26:22.944Z,100643.41
2023-01-19T12:28:52.071Z,100651.31
2023-01-19T12:31:21.447Z,100648.59
2023-01-19T12:33:48.655Z,100639.72
2023-01-19T12:36:30.418Z,100638.59
2023-01-19T12:39:26.404Z,100647.78
2023-01-19T12:42:18.545Z,100652.13
2023-01-19T12:44:47.572Z,100657.44
2023-01-19T12:50:06.810Z,100657.13
2023-01-19T12:52:38.841Z,100661.03
2023-01-19T12:55:14.296Z,100658.28
2023-01-19T12:57:47.000Z,100661.22
2023-01-19T13:00:22.526Z,100659.44
2023-01-19T13:02:54.753Z,100659.78
2023-01-19T13:05:24.365Z,100662.69
2023-01-19T13:08:03.461Z,100664.41
2023-01-19T13:11:10.337Z,100656.94
2023-01-19T13:13:45.054Z,100662.72
2023-01-19T13:16:27.640Z,100662.25
2023-01-19T13:18:57.469Z,100660.66
2023-01-19T13:21:31.047Z,100665.38
2023-01-19T13:24:03.480Z,100664.28
2023-01-19T13:26:35.856Z,100665.47
2023-01-19T13:29:07.738Z,100662.75
2023-01-19T13:31:40.277Z,100671.41
2023-01-19T13:34:17.122Z,100669.41
2023-01-19T13:36:46.383Z,100667.09
2023-01-19T13:39:20.124Z,100681.28
2023-01-19T13:41:48.718Z,100677.53
2023-01-19T13:44:26.685Z,100678.28
2023-01-19T13:46:54.904Z,100680.19
2023-01-19T13:49:29.699Z,100686.59
2023-01-19T13:52:16.992Z,100687.56
2023-01-19T13:55:01.124Z,100685.75
2023-01-19T13:57:31.403Z,100691.66
2023-01-19T14:00:17.911Z,100695.00
2023-01-19T14:02:55.591Z,100696.03
2023-01-19T14:05:31.019Z,100706.28
2023-01-19T14:08:03.699Z,100709.44
2023-01-19T14:10:33.071Z,100703.59
2023-01-19T14:13:05.120Z,100711.25
2023-01-19T14:15:34.267Z,100704.25
2023-01-19T14:18:18.998Z,100710.84
2023-01-19T14:20:59.545Z,100715.91
2023-01-19T14:23:45.189Z,100719.59
2023-01-19T14:26:39.752Z,100722.59
2023-01-19T14:29:21.477Z,100732.91
2023-01-19T14:31:50.783Z,100720.84
2023-01-19T14:34:38.908Z,100725.47
2023-01-19T14:37:26.816Z,100728.47
2023-01-19T14:40:10.615Z,100729.03
2023-01-19T14:42:43.014Z,100730.94
2023-01-19T14:45:23.499Z,100732.19
2023-01-19T14:48:11.927Z,100729.22
2023-01-19T14:50:42.849Z,100731.69
2023-01-19T14:53:19.155Z,100730.38
2023-01-19T14:56:12.081Z,100740.25
2023-01-19T14:58:38.439Z,100728.94
2023-01-19T15:01:06.547Z,100735.44
2023-01-19T15:03:48.564Z,100732.47
2023-01-19T15:06:18.992Z,100731.44
2023-01-19T15:08:46.719Z,100735.91
2023-01-19T15:11:22.822Z,100741.75
2023-01-19T15:13:49.836Z,100734.72
2023-01-19T15:16:16.765Z,100742.31
2023-01-19T15:18:43.221Z,100749.63
2023-01-19T15:21:19.968Z,100742.88
2023-01-19T15:23:47.483Z,100741.41
2023-01-19T15:26:17.429Z,100750.56
2023-01-19T15:28:45.235Z,100751.38
2023-01-19T15:31:16.934Z,100763.84
2023-01-19T15:33:43.526Z,100764.22
2023-01-19T15:36:16.948Z,100768.16
2023-01-19T15:38:44.580Z,100765.47
2023-01-19T15:41:28.620Z,100775.47
2023-01-19T15:43:55.214Z,100771.78
2023-01-19T15:46:22.800Z,100774.88
2023-01-19T15:48:50.544Z,100779.88
2023-01-19T15:51:19.322Z,100775.41
2023-01-19T15:53:46.553Z,100784.03
2023-01-19T15:56:21.829Z,100777.22
2023-01-19T15:58:48.224Z,100784.09
2023-01-19T16:01:21.241Z,100788.38
2023-01-19T16:03:48.691Z,100790.91
2023-01-19T16:06:16.472Z,100799.34
2023-01-19T16:08:42.883Z,100793.22
2023-01-19T16:11:12.043Z,100787.78
2023-01-19T16:13:39.397Z,100792.88
2023-01-19T16:16:16.005Z,100805.25
2023-01-19T16:18:42.805Z,100801.69
2023-01-19T16:21:09.185Z,100797.06
2023-01-19T16:23:35.550Z,100816.16
2023-01-19T16:26:25.246Z,100813.28
2023-01-19T16:28:51.797Z,100817.16
2023-01-19T16:31:18.262Z,100822.66
2023-01-19T16:33:45.244Z,100822.22
2023-01-19T16:36:18.944Z,100820.81
2023-01-19T16:38:45.311Z,100820.38
2023-01-19T16:41:11.725Z,100827.72
2023-01-19T16:43:38.085Z,100823.78
2023-01-19T16:46:04.602Z,100841.25
2023-01-19T16:48:32.248Z,100840.66
2023-01-19T16:51:00.873Z,100834.41
2023-01-19T16:53:27.840Z,100835.81
2023-01-19T16:55:54.375Z,100840.72
2023-01-19T16:58:20.794Z,100831.63
2023-01-19T17:00:47.284Z,100841.41
2023-01-19T17:03:13.792Z,100845.94
2023-01-19T17:05:40.174Z,100847.72
2023-01-19T17:08:06.596Z,100848.16
2023-01-19T17:10:36.343Z,100856.19
2023-01-19T17:13:03.931Z,100859.91
2023-01-19T17:15:30.697Z,100857.00
2023-01-19T17:17:57.136Z,100864.41
2023-01-19T17:20:23.490Z,100861.19
2023-01-19T17:22:49.841Z,100874.28
2023-01-19T17:25:16.250Z,100874.75
2023-01-19T17:27:42.627Z,100877.78
2023-01-19T17:30:09.915Z,100875.56
2023-01-19T17:32:36.783Z,100875.09
2023-01-19T17:35:03.292Z,100877.88
2023-01-19T17:37:29.709Z,100878.31
2023-01-19T17:39:56.088Z,100879.44
2023-01-19T17:42:22.472Z,100880.63
2023-01-19T17:44:48.866Z,100878.16
2023-01-19T17:47:15.287Z,100883.59
2023-01-19T17:49:41.689Z,100879.75
2023-01-19T17:52:08.199Z,100878.25
2023-01-19T17:54:34.585Z,100878.69
2023-01-19T17:57:00.962Z,100883.19
2023-01-19T17:59:27.482Z,100884.44
2023-01-19T18:01:54.545Z,100884.78
2023-01-19T18:04:21.036Z,100887.66
2023-01-19T18:06:51.070Z,100888.78
2023-01-19T18:09:17.437Z,100898.31
2023-01-19T18:11:43.838Z,100899.31
2023-01-19T18:14:10.248Z,100892.81
2023-01-19T18:16:36.651Z,100900.69
2023-01-19T18:19:03.439Z,100900.09
2023-01-19T18:21:30.415Z,100909.56
2023-01-19T18:24:02.850Z,100901.91
2023-01-19T18:26:30.421Z,100901.81
2023-01-19T18:28:57.738Z,100911.13
2023-01-19T18:31:25.820Z,100904.16
2023-01-19T18:33:52.556Z,100922.63
2023-01-19T18:36:19.050Z,100928.94
2023-01-19T18:38:45.557Z,100922.34
2023-01-19T18:41:15.423Z,100915.91
2023-01-19T18:43:42.615Z,100923.25
2023-01-19T18:46:09.959Z,100914.53
2023-01-19T18:48:37.786Z,100928.09
2023-01-19T18:51:10.413Z,100922.28
2023-01-19T18:53:36.929Z,100924.97
2023-01-19T18:56:04.260Z,100920.91
2023-01-19T18:58:32.472Z,100917.72
2023-01-19T19:01:00.695Z,100918.69
2023-01-19T19:03:27.581Z,100923.28
2023-01-19T19:05:54.171Z,100925.00
2023-01-19T19:08:20.762Z,100929.31
2023-01-19T19:10:47.431Z,100934.53
2023-01-19T19:13:16.008Z,100934.41
2023-01-19T19:15:44.257Z,100943.72
2023-01-19T19:18:13.539Z,100941.66
2023-01-19T19:20:40.475Z,100966.63
2023-01-19T19:23:06.911Z,100959.34
2023-01-19T19:25:33.497Z,100958.31
2023-01-19T19:28:00.017Z,100965.75
2023-01-19T19:30:26.536Z,100973.00
2023-01-19T19:32:56.535Z,100966.59
2023-01-19T19:35:23.684Z,100977.22
2023-01-19T19:37:50.127Z,100983.63
2023-01-19T19:40:16.777Z,100983.41
2023-01-19T19:42:43.186Z,100985.63
2023-01-19T19:45:10.296Z,100982.84
2023-01-19T19:47:36.788Z,100990.31
2023-01-19T19:50:03.337Z,100990.47
2023-01-19T19:52:29.876Z,100996.41
2023-01-19T19:54:56.283Z,100996.78
2023-01-19T19:57:22.929Z,101001.44
2023-01-19T19:59:49.314Z,101005.28
2023-01-19T20:02:15.722Z,100999.25
2023-01-19T20:04:43.086Z,101004.56
2023-01-19T20:07:09.551Z,101003.31
2023-01-19T20:09:36.378Z,100994.31
2023-01-19T20:12:02.810Z,101001.53
2023-01-19T20:14:29.207Z,101011.16
2023-01-19T20:16:55.632Z,101007.88
2023-01-19T20:19:22.035Z,101018.81
2023-01-19T20:21:48.435Z,101018.94
2023-01-19T20:24:17.677Z,101024.03
2023-01-19T20:26:47.211Z,101024.97
2023-01-19T20:29:16.556Z,101022.50
2023-01-19T20:31:49.474Z,101036.22
2023-01-19T20:34:18.523Z,101032.16
2023-01-19T20:36:49.466Z,101036.44
2023-01-19T20:39:17.597Z,101048.28
2023-01-19T20:41:45.040Z,101045.84
2023-01-19T20:44:13.337Z,101043.28
2023-01-19T20:46:40.256Z,101045.13
2023-01-19T20:49:06.729Z,101058.81
2023-01-19T20:51:34.910Z,101059.78
2023-01-19T20:54:01.487Z,101057.13
2023-01-19T20:56:27.863Z,101061.16
2023-01-19T20:58:54.221Z,101067.00
2023-01-19T21:01:24.276Z,101060.25
2023-01-19T21:03:51.718Z,101066.28
2023-01-19T21:06:19.297Z,101062.91
2023-01-19T21:08:45.892Z,101060.56
2023-01-19T21:11:13.239Z,101058.25
2023-01-19T21:13:39.656Z,101063.94
2023-01-19T21:16:06.944Z,101055.56
2023-01-19T21:18:33.367Z,101057.53
2023-01-19T21:20:59.861Z,101055.09
2023-01-19T21:23:27.314Z,101059.63
2023-01-19T21:25:56.511Z,101066.56
2023-01-19T21:28:23.365Z,101073.41
2023-01-19T21:30:50.972Z,101071.16
2023-01-19T21:33:18.293Z,101077.34
2023-01-19T21:35:53.242Z,101075.09
2023-01-19T21:38:19.909Z,101077.97
2023-01-19T21:40:46.336Z,101081.53
2023-01-19T21:43:13.594Z,101087.69
2023-01-19T21:45:43.023Z,101088.72
2023-01-19T21:48:09.852Z,101088.00
2023-01-19T21:50:36.905Z,101094.13
2023-01-19T21:53:05.846Z,101087.63
2023-01-19T21:55:33.019Z,101089.47
2023-01-19T21:57:59.813Z,101085.47
2023-01-19T22:00:29.347Z,101098.44
2023-01-19T22:03:03.760Z,101102.03
2023-01-19T22:05:36.617Z,101104.91
2023-01-19T22:08:03.797Z,101108.47
2023-01-19T22:10:30.208Z,101101.13
2023-01-19T22:12:56.633Z,101106.44
2023-01-19T22:15:23.054Z,101115.13
2023-01-19T22:17:49.457Z,101121.25
2023-01-19T22:20:16.045Z,101127.50
2023-01-19T22:22:42.477Z,101136.06
2023-01-19T22:25:09.326Z,101132.50
2023-01-19T22:27:37.377Z,101141.56
2023-01-19T22:30:04.088Z,101130.94
2023-01-19T22:32:31.427Z,101139.09
2023-01-19T22:34:57.918Z,101143.19
2023-01-19T22:37:24.531Z,101156.56
2023-01-19T22:39:50.952Z,101142.91
2023-01-19T22:42:17.329Z,101145.34
2023-01-19T22:44:44.317Z,101149.50
2023-01-19T22:47:10.735Z,101143.50
2023-01-19T22:49:37.189Z,101146.75
2023-01-19T22:52:03.633Z,101139.09
2023-01-19T22:54:30.217Z,101145.00
2023-01-19T22:56:56.626Z,101145.00
2023-01-19T22:59:23.068Z,101141.75
2023-01-19T23:01:49.852Z,101156.25
2023-01-19T23:04:16.309Z,101144.41
2023-01-19T23:06:43.359Z,101152.16
2023-01-19T23:09:14.789Z,101154.13
2023-01-19T23:11:43.840Z,101151.66
2023-01-19T23:14:15.581Z,101149.31
2023-01-19T23:16:42.293Z,101159.63
2023-01-19T23:19:11.423Z,101157.91
2023-01-19T23:21:37.866Z,101152.81
2023-01-19T23:24:05.067Z,101142.59
2023-01-19T23:26:38.011Z,101156.28
2023-01-19T23:29:08.171Z,101147.91
2023-01-19T23:31:36.775Z,101149.72
2023-01-19T23:34:05.961Z,101156.78
2023-01-19T23:36:34.490Z,101159.31
2023-01-19T23:39:06.141Z,101151.78
2023-01-19T23:41:34.627Z,101162.06
2023-01-19T23:44:01.941Z,101163.00
2023-01-19T23:46:29.408Z,101156.47
2023-01-19T23:48:55.995Z,101165.34
2023-01-19T23:51:28.368Z,101165.47
2023-01-19T23:53:56.398Z,101160.75
2023-01-19T23:56:25.919Z,101157.69
2023-01-19T23:58:54.911Z,101161.44
